sensor_id;sensor_type;location;lat;lon;timestamp;temperature;humidity
83729;DHT22;73707;56.480;-2.840;2024-01-30T00:01:38;9.00;99.90
83729;DHT22;73707;56.480;-2.840;2024-01-30T00:04:03;9.00;99.90
83729;DHT22;73707;56.480;-2.840;2024-01-30T00:06:29;9.00;99.90
83729;DHT22;73707;56.480;-2.840;2024-01-30T00:08:55;8.90;99.90
83729;DHT22;73707;56.480;-2.840;2024-01-30T00:11:20;8.90;99.90
83729;DHT22;73707;56.480;-2.840;2024-01-30T00:13:46;8.90;99.90
83729;DHT22;73707;56.480;-2.840;2024-01-30T00:16:22;8.90;99.90
83729;DHT22;73707;56.480;-2.840;2024-01-30T00:18:53;8.90;99.90
83729;DHT22;73707;56.480;-2.840;2024-01-30T00:21:19;8.90;99.90
83729;DHT22;73707;56.480;-2.840;2024-01-30T00:23:45;8.90;99.90
83729;DHT22;73707;56.480;-2.840;2024-01-30T00:26:11;8.90;99.90
83729;DHT22;73707;56.480;-2.840;2024-01-30T00:28:41;8.90;99.90
83729;DHT22;73707;56.480;-2.840;2024-01-30T00:31:07;8.90;99.90
83729;DHT22;73707;56.480;-2.840;2024-01-30T00:33:33;8.90;99.90
83729;DHT22;73707;56.480;-2.840;2024-01-30T00:35:58;8.90;99.90
83729;DHT22;73707;56.480;-2.840;2024-01-30T00:38:24;8.90;99.90
83729;DHT22;73707;56.480;-2.840;2024-01-30T00:40:50;8.80;99.90
83729;DHT22;73707;56.480;-2.840;2024-01-30T00:43:16;8.90;99.90
83729;DHT22;73707;56.480;-2.840;2024-01-30T00:45:43;8.80;99.90
83729;DHT22;73707;56.480;-2.840;2024-01-30T00:48:09;8.80;99.90
83729;DHT22;73707;56.480;-2.840;2024-01-30T00:50:35;8.80;99.90
83729;DHT22;73707;56.480;-2.840;2024-01-30T00:53:01;8.80;99.90
83729;DHT22;73707;56.480;-2.840;2024-01-30T00:55:26;8.80;99.90
83729;DHT22;73707;56.480;-2.840;2024-01-30T00:57:52;8.80;99.90
83729;DHT22;73707;56.480;-2.840;2024-01-30T01:00:18;8.80;99.90
83729;DHT22;73707;56.480;-2.840;2024-01-30T01:02:44;8.80;99.90
83729;DHT22;73707;56.480;-2.840;2024-01-30T01:05:10;8.80;99.90
83729;DHT22;73707;56.480;-2.840;2024-01-30T01:07:36;8.80;99.90
83729;DHT22;73707;56.480;-2.840;2024-01-30T01:10:01;8.80;99.90
83729;DHT22;73707;56.480;-2.840;2024-01-30T01:12:28;8.80;99.90
83729;DHT22;73707;56.480;-2.840;2024-01-30T01:14:53;8.80;99.90
83729;DHT22;73707;56.480;-2.840;2024-01-30T01:17:19;8.80;99.90
83729;DHT22;73707;56.480;-2.840;2024-01-30T01:19:45;8.80;99.90
83729;DHT22;73707;56.480;-2.840;2024-01-30T01:22:11;8.80;99.90
83729;DHT22;73707;56.480;-2.840;2024-01-30T01:24:36;8.70;99.90
83729;DHT22;73707;56.480;-2.840;2024-01-30T01:27:02;8.80;99.90
83729;DHT22;73707;56.480;-2.840;2024-01-30T01:29:28;8.70;99.90
83729;DHT22;73707;56.480;-2.840;2024-01-30T01:32:00;8.80;99.90
83729;DHT22;73707;56.480;-2.840;2024-01-30T01:34:26;8.70;99.90
83729;DHT22;73707;56.480;-2.840;2024-01-30T01:36:52;8.70;99.90
83729;DHT22;73707;56.480;-2.840;2024-01-30T01:39:22;8.70;99.90
83729;DHT22;73707;56.480;-2.840;2024-01-30T01:41:49;8.70;99.90
83729;DHT22;73707;56.480;-2.840;2024-01-30T01:44:14;8.70;99.90
83729;DHT22;73707;56.480;-2.840;2024-01-30T01:46:40;8.70;99.90
83729;DHT22;73707;56.480;-2.840;2024-01-30T01:49:07;8.70;99.90
83729;DHT22;73707;56.480;-2.840;2024-01-30T01:51:34;8.60;99.90
83729;DHT22;73707;56.480;-2.840;2024-01-30T01:54:04;8.60;99.90
83729;DHT22;73707;56.480;-2.840;2024-01-30T01:56:31;8.60;99.90
83729;DHT22;73707;56.480;-2.840;2024-01-30T01:59:00;8.60;99.90
83729;DHT22;73707;56.480;-2.840;2024-01-30T02:01:29;8.50;99.90
83729;DHT22;73707;56.480;-2.840;2024-01-30T02:03:55;8.60;99.90
83729;DHT22;73707;56.480;-2.840;2024-01-30T02:06:21;8.60;99.90
83729;DHT22;73707;56.480;-2.840;2024-01-30T02:08:47;8.50;99.90
83729;DHT22;73707;56.480;-2.840;2024-01-30T02:11:13;8.50;99.90
83729;DHT22;73707;56.480;-2.840;2024-01-30T02:13:40;8.50;99.90
83729;DHT22;73707;56.480;-2.840;2024-01-30T02:16:06;8.50;99.90
83729;DHT22;73707;56.480;-2.840;2024-01-30T02:18:32;8.50;99.90
83729;DHT22;73707;56.480;-2.840;2024-01-30T02:20:58;8.50;99.90
83729;DHT22;73707;56.480;-2.840;2024-01-30T02:23:27;8.50;99.90
83729;DHT22;73707;56.480;-2.840;2024-01-30T02:25:53;8.50;99.90
83729;DHT22;73707;56.480;-2.840;2024-01-30T02:28:19;8.50;99.90
83729;DHT22;73707;56.480;-2.840;2024-01-30T02:30:46;8.50;99.90
83729;DHT22;73707;56.480;-2.840;2024-01-30T02:33:12;8.50;99.90
83729;DHT22;73707;56.480;-2.840;2024-01-30T02:35:38;8.50;99.90
83729;DHT22;73707;56.480;-2.840;2024-01-30T02:38:04;8.50;99.90
83729;DHT22;73707;56.480;-2.840;2024-01-30T02:40:30;8.50;99.90
83729;DHT22;73707;56.480;-2.840;2024-01-30T02:42:56;8.50;99.90
83729;DHT22;73707;56.480;-2.840;2024-01-30T02:45:22;8.40;99.90
83729;DHT22;73707;56.480;-2.840;2024-01-30T02:47:47;8.40;99.90
83729;DHT22;73707;56.480;-2.840;2024-01-30T02:50:13;8.40;99.90
83729;DHT22;73707;56.480;-2.840;2024-01-30T02:52:40;8.40;99.90
83729;DHT22;73707;56.480;-2.840;2024-01-30T02:55:06;8.40;99.90
83729;DHT22;73707;56.480;-2.840;2024-01-30T02:57:32;8.40;99.90
83729;DHT22;73707;56.480;-2.840;2024-01-30T02:59:58;8.50;99.90
83729;DHT22;73707;56.480;-2.840;2024-01-30T03:02:23;8.40;99.90
83729;DHT22;73707;56.480;-2.840;2024-01-30T03:04:49;8.40;99.90
83729;DHT22;73707;56.480;-2.840;2024-01-30T03:07:15;8.40;99.90
83729;DHT22;73707;56.480;-2.840;2024-01-30T03:09:41;8.40;99.90
83729;DHT22;73707;56.480;-2.840;2024-01-30T03:12:10;8.40;99.90
83729;DHT22;73707;56.480;-2.840;2024-01-30T03:14:36;8.40;99.90
83729;DHT22;73707;56.480;-2.840;2024-01-30T03:17:02;8.40;99.90
83729;DHT22;73707;56.480;-2.840;2024-01-30T03:19:28;8.40;99.90
83729;DHT22;73707;56.480;-2.840;2024-01-30T03:21:54;8.40;99.90
83729;DHT22;73707;56.480;-2.840;2024-01-30T03:24:19;8.40;99.90
83729;DHT22;73707;56.480;-2.840;2024-01-30T03:26:45;8.30;99.90
83729;DHT22;73707;56.480;-2.840;2024-01-30T03:29:11;8.30;99.90
83729;DHT22;73707;56.480;-2.840;2024-01-30T03:31:37;8.30;99.90
83729;DHT22;73707;56.480;-2.840;2024-01-30T03:34:03;8.30;99.90
83729;DHT22;73707;56.480;-2.840;2024-01-30T03:36:28;8.30;99.90
83729;DHT22;73707;56.480;-2.840;2024-01-30T03:38:54;8.30;99.90
83729;DHT22;73707;56.480;-2.840;2024-01-30T03:41:20;8.20;99.90
83729;DHT22;73707;56.480;-2.840;2024-01-30T03:43:46;8.20;99.90
83729;DHT22;73707;56.480;-2.840;2024-01-30T03:46:12;8.20;99.90
83729;DHT22;73707;56.480;-2.840;2024-01-30T03:48:38;8.20;99.90
83729;DHT22;73707;56.480;-2.840;2024-01-30T03:51:04;8.10;99.90
83729;DHT22;73707;56.480;-2.840;2024-01-30T03:53:30;8.10;99.90
83729;DHT22;73707;56.480;-2.840;2024-01-30T03:55:56;8.10;99.90
83729;DHT22;73707;56.480;-2.840;2024-01-30T03:58:22;8.10;99.90
83729;DHT22;73707;56.480;-2.840;2024-01-30T04:00:48;8.00;99.90
83729;DHT22;73707;56.480;-2.840;2024-01-30T04:03:16;8.00;99.90
83729;DHT22;73707;56.480;-2.840;2024-01-30T04:05:42;8.00;99.90
83729;DHT22;73707;56.480;-2.840;2024-01-30T04:08:08;7.90;99.90
83729;DHT22;73707;56.480;-2.840;2024-01-30T04:10:34;8.00;99.90
83729;DHT22;73707;56.480;-2.840;2024-01-30T04:13:00;7.90;99.90
83729;DHT22;73707;56.480;-2.840;2024-01-30T04:15:26;7.90;99.90
83729;DHT22;73707;56.480;-2.840;2024-01-30T04:17:52;7.90;99.90
83729;DHT22;73707;56.480;-2.840;2024-01-30T04:20:18;7.90;99.90
83729;DHT22;73707;56.480;-2.840;2024-01-30T04:22:44;7.90;99.90
83729;DHT22;73707;56.480;-2.840;2024-01-30T04:25:10;7.90;99.90
83729;DHT22;73707;56.480;-2.840;2024-01-30T04:27:36;7.90;99.90
83729;DHT22;73707;56.480;-2.840;2024-01-30T04:30:02;7.90;99.90
83729;DHT22;73707;56.480;-2.840;2024-01-30T04:32:29;7.80;99.90
83729;DHT22;73707;56.480;-2.840;2024-01-30T04:34:54;7.80;99.90
83729;DHT22;73707;56.480;-2.840;2024-01-30T04:37:20;7.80;99.90
83729;DHT22;73707;56.480;-2.840;2024-01-30T04:39:46;7.80;99.90
83729;DHT22;73707;56.480;-2.840;2024-01-30T04:42:12;7.70;99.90
83729;DHT22;73707;56.480;-2.840;2024-01-30T04:44:37;7.70;99.90
83729;DHT22;73707;56.480;-2.840;2024-01-30T04:47:03;7.70;99.90
83729;DHT22;73707;56.480;-2.840;2024-01-30T04:49:31;7.70;99.90
83729;DHT22;73707;56.480;-2.840;2024-01-30T04:51:57;7.70;99.90
83729;DHT22;73707;56.480;-2.840;2024-01-30T04:54:23;7.70;99.90
83729;DHT22;73707;56.480;-2.840;2024-01-30T04:56:49;7.70;99.90
83729;DHT22;73707;56.480;-2.840;2024-01-30T04:59:15;7.70;99.90
83729;DHT22;73707;56.480;-2.840;2024-01-30T05:01:40;7.70;99.90
83729;DHT22;73707;56.480;-2.840;2024-01-30T05:04:10;7.70;99.90
83729;DHT22;73707;56.480;-2.840;2024-01-30T05:06:36;7.60;99.90
83729;DHT22;73707;56.480;-2.840;2024-01-30T05:09:02;7.60;99.90
83729;DHT22;73707;56.480;-2.840;2024-01-30T05:11:30;7.60;99.90
83729;DHT22;73707;56.480;-2.840;2024-01-30T05:13:55;7.50;99.90
83729;DHT22;73707;56.480;-2.840;2024-01-30T05:16:21;7.50;99.90
83729;DHT22;73707;56.480;-2.840;2024-01-30T05:18:47;7.50;99.90
83729;DHT22;73707;56.480;-2.840;2024-01-30T05:21:12;7.40;99.90
83729;DHT22;73707;56.480;-2.840;2024-01-30T05:23:38;7.40;99.90
83729;DHT22;73707;56.480;-2.840;2024-01-30T05:26:04;7.30;99.90
83729;DHT22;73707;56.480;-2.840;2024-01-30T05:28:32;7.30;99.90
83729;DHT22;73707;56.480;-2.840;2024-01-30T05:30:58;7.30;99.90
83729;DHT22;73707;56.480;-2.840;2024-01-30T05:33:23;7.30;99.90
83729;DHT22;73707;56.480;-2.840;2024-01-30T05:35:49;7.20;99.90
83729;DHT22;73707;56.480;-2.840;2024-01-30T05:38:17;7.20;99.90
83729;DHT22;73707;56.480;-2.840;2024-01-30T05:40:43;7.20;99.90
83729;DHT22;73707;56.480;-2.840;2024-01-30T05:43:09;7.20;99.90
83729;DHT22;73707;56.480;-2.840;2024-01-30T05:45:35;7.20;99.90
83729;DHT22;73707;56.480;-2.840;2024-01-30T05:48:01;7.20;99.90
83729;DHT22;73707;56.480;-2.840;2024-01-30T05:50:27;7.10;99.90
83729;DHT22;73707;56.480;-2.840;2024-01-30T05:52:53;7.10;99.90
83729;DHT22;73707;56.480;-2.840;2024-01-30T05:55:18;7.10;99.90
83729;DHT22;73707;56.480;-2.840;2024-01-30T05:57:44;7.00;99.90
83729;DHT22;73707;56.480;-2.840;2024-01-30T06:00:10;7.00;99.90
83729;DHT22;73707;56.480;-2.840;2024-01-30T06:02:36;6.90;99.90
83729;DHT22;73707;56.480;-2.840;2024-01-30T06:05:02;6.90;99.90
83729;DHT22;73707;56.480;-2.840;2024-01-30T06:07:28;6.90;99.90
83729;DHT22;73707;56.480;-2.840;2024-01-30T06:09:53;6.90;99.90
83729;DHT22;73707;56.480;-2.840;2024-01-30T06:12:19;6.90;99.90
83729;DHT22;73707;56.480;-2.840;2024-01-30T06:14:45;6.80;99.90
83729;DHT22;73707;56.480;-2.840;2024-01-30T06:17:11;6.80;99.90
83729;DHT22;73707;56.480;-2.840;2024-01-30T06:19:38;6.80;99.90
83729;DHT22;73707;56.480;-2.840;2024-01-30T06:22:04;6.80;99.90
83729;DHT22;73707;56.480;-2.840;2024-01-30T06:24:30;6.80;99.90
83729;DHT22;73707;56.480;-2.840;2024-01-30T06:26:56;6.70;99.90
83729;DHT22;73707;56.480;-2.840;2024-01-30T06:29:21;6.70;99.90
83729;DHT22;73707;56.480;-2.840;2024-01-30T06:31:47;6.70;99.90
83729;DHT22;73707;56.480;-2.840;2024-01-30T06:34:13;6.60;99.90
83729;DHT22;73707;56.480;-2.840;2024-01-30T06:36:39;6.60;99.90
83729;DHT22;73707;56.480;-2.840;2024-01-30T06:39:05;6.60;99.90
83729;DHT22;73707;56.480;-2.840;2024-01-30T06:41:31;6.50;99.90
83729;DHT22;73707;56.480;-2.840;2024-01-30T06:43:56;6.50;99.90
83729;DHT22;73707;56.480;-2.840;2024-01-30T06:46:22;6.50;99.90
83729;DHT22;73707;56.480;-2.840;2024-01-30T06:48:48;6.50;99.90
83729;DHT22;73707;56.480;-2.840;2024-01-30T06:51:13;6.50;99.90
83729;DHT22;73707;56.480;-2.840;2024-01-30T06:53:39;6.50;99.90
83729;DHT22;73707;56.480;-2.840;2024-01-30T06:56:05;6.40;99.90
83729;DHT22;73707;56.480;-2.840;2024-01-30T06:58:31;6.40;99.90
83729;DHT22;73707;56.480;-2.840;2024-01-30T07:00:58;6.40;99.90
83729;DHT22;73707;56.480;-2.840;2024-01-30T07:03:23;6.40;99.90
83729;DHT22;73707;56.480;-2.840;2024-01-30T07:05:49;6.30;99.80
83729;DHT22;73707;56.480;-2.840;2024-01-30T07:08:18;6.30;99.90
83729;DHT22;73707;56.480;-2.840;2024-01-30T07:10:44;6.30;99.90
83729;DHT22;73707;56.480;-2.840;2024-01-30T07:13:11;6.30;99.90
83729;DHT22;73707;56.480;-2.840;2024-01-30T07:15:36;6.20;99.90
83729;DHT22;73707;56.480;-2.840;2024-01-30T07:18:03;6.20;99.90
83729;DHT22;73707;56.480;-2.840;2024-01-30T07:20:30;6.20;99.90
83729;DHT22;73707;56.480;-2.840;2024-01-30T07:22:58;6.20;99.90
83729;DHT22;73707;56.480;-2.840;2024-01-30T07:25:23;6.10;99.90
83729;DHT22;73707;56.480;-2.840;2024-01-30T07:27:53;6.10;99.90
83729;DHT22;73707;56.480;-2.840;2024-01-30T07:30:19;6.10;99.90
83729;DHT22;73707;56.480;-2.840;2024-01-30T07:32:46;6.10;99.90
83729;DHT22;73707;56.480;-2.840;2024-01-30T07:35:12;6.10;99.90
83729;DHT22;73707;56.480;-2.840;2024-01-30T07:37:38;6.10;99.80
83729;DHT22;73707;56.480;-2.840;2024-01-30T07:40:04;6.00;99.80
83729;DHT22;73707;56.480;-2.840;2024-01-30T07:42:30;6.00;99.80
83729;DHT22;73707;56.480;-2.840;2024-01-30T07:44:55;6.00;99.90
83729;DHT22;73707;56.480;-2.840;2024-01-30T07:47:21;6.00;99.90
83729;DHT22;73707;56.480;-2.840;2024-01-30T07:49:47;6.00;99.90
83729;DHT22;73707;56.480;-2.840;2024-01-30T07:52:13;6.00;99.70
83729;DHT22;73707;56.480;-2.840;2024-01-30T07:54:39;5.90;99.90
83729;DHT22;73707;56.480;-2.840;2024-01-30T07:57:04;6.00;99.80
83729;DHT22;73707;56.480;-2.840;2024-01-30T07:59:30;6.00;99.90
83729;DHT22;73707;56.480;-2.840;2024-01-30T08:01:56;5.90;99.90
83729;DHT22;73707;56.480;-2.840;2024-01-30T08:04:21;5.90;99.90
83729;DHT22;73707;56.480;-2.840;2024-01-30T08:06:47;5.90;99.90
83729;DHT22;73707;56.480;-2.840;2024-01-30T08:09:13;5.90;99.90
83729;DHT22;73707;56.480;-2.840;2024-01-30T08:11:38;5.90;99.90
83729;DHT22;73707;56.480;-2.840;2024-01-30T08:14:04;5.80;99.80
83729;DHT22;73707;56.480;-2.840;2024-01-30T08:16:29;5.80;99.90
83729;DHT22;73707;56.480;-2.840;2024-01-30T08:18:55;5.80;99.70
83729;DHT22;73707;56.480;-2.840;2024-01-30T08:21:23;5.80;99.80
83729;DHT22;73707;56.480;-2.840;2024-01-30T08:23:48;5.80;99.90
83729;DHT22;73707;56.480;-2.840;2024-01-30T08:26:14;5.80;99.90
83729;DHT22;73707;56.480;-2.840;2024-01-30T08:28:40;5.80;99.90
83729;DHT22;73707;56.480;-2.840;2024-01-30T08:31:05;5.70;99.80
83729;DHT22;73707;56.480;-2.840;2024-01-30T08:33:31;5.70;99.90
83729;DHT22;73707;56.480;-2.840;2024-01-30T08:35:57;5.70;99.80
83729;DHT22;73707;56.480;-2.840;2024-01-30T08:38:22;5.70;99.90
83729;DHT22;73707;56.480;-2.840;2024-01-30T08:40:48;5.70;99.80
83729;DHT22;73707;56.480;-2.840;2024-01-30T08:43:14;5.60;99.90
83729;DHT22;73707;56.480;-2.840;2024-01-30T08:45:40;5.60;99.80
83729;DHT22;73707;56.480;-2.840;2024-01-30T08:48:07;5.60;99.90
83729;DHT22;73707;56.480;-2.840;2024-01-30T08:50:33;5.60;99.90
83729;DHT22;73707;56.480;-2.840;2024-01-30T08:52:59;5.60;99.90
83729;DHT22;73707;56.480;-2.840;2024-01-30T08:55:24;5.60;99.90
83729;DHT22;73707;56.480;-2.840;2024-01-30T08:57:50;5.70;99.90
83729;DHT22;73707;56.480;-2.840;2024-01-30T09:00:17;5.70;99.90
83729;DHT22;73707;56.480;-2.840;2024-01-30T09:02:43;5.70;99.90
83729;DHT22;73707;56.480;-2.840;2024-01-30T09:05:09;5.70;99.90
83729;DHT22;73707;56.480;-2.840;2024-01-30T09:07:35;5.70;99.90
83729;DHT22;73707;56.480;-2.840;2024-01-30T09:10:01;5.80;99.90
83729;DHT22;73707;56.480;-2.840;2024-01-30T09:12:26;5.80;99.90
83729;DHT22;73707;56.480;-2.840;2024-01-30T09:14:52;5.80;99.90
83729;DHT22;73707;56.480;-2.840;2024-01-30T09:17:18;5.80;99.90
83729;DHT22;73707;56.480;-2.840;2024-01-30T09:19:45;5.80;99.90
83729;DHT22;73707;56.480;-2.840;2024-01-30T09:22:10;5.90;99.90
83729;DHT22;73707;56.480;-2.840;2024-01-30T09:24:36;5.90;99.90
83729;DHT22;73707;56.480;-2.840;2024-01-30T09:27:02;5.90;99.90
83729;DHT22;73707;56.480;-2.840;2024-01-30T09:29:27;5.90;99.90
83729;DHT22;73707;56.480;-2.840;2024-01-30T09:31:54;5.90;99.90
83729;DHT22;73707;56.480;-2.840;2024-01-30T09:34:20;5.90;99.90
83729;DHT22;73707;56.480;-2.840;2024-01-30T09:36:45;6.00;99.90
83729;DHT22;73707;56.480;-2.840;2024-01-30T09:39:11;6.00;99.90
83729;DHT22;73707;56.480;-2.840;2024-01-30T09:41:48;6.10;99.90
83729;DHT22;73707;56.480;-2.840;2024-01-30T09:44:16;6.20;99.90
83729;DHT22;73707;56.480;-2.840;2024-01-30T09:46:42;6.20;99.90
83729;DHT22;73707;56.480;-2.840;2024-01-30T09:49:09;6.30;99.90
83729;DHT22;73707;56.480;-2.840;2024-01-30T09:51:35;6.30;99.90
83729;DHT22;73707;56.480;-2.840;2024-01-30T09:54:02;6.40;99.90
83729;DHT22;73707;56.480;-2.840;2024-01-30T09:56:28;6.50;99.90
83729;DHT22;73707;56.480;-2.840;2024-01-30T09:58:54;6.50;99.90
83729;DHT22;73707;56.480;-2.840;2024-01-30T10:01:20;6.50;99.90
83729;DHT22;73707;56.480;-2.840;2024-01-30T10:03:46;6.60;99.90
83729;DHT22;73707;56.480;-2.840;2024-01-30T10:06:12;6.60;99.90
83729;DHT22;73707;56.480;-2.840;2024-01-30T10:08:37;6.70;99.90
83729;DHT22;73707;56.480;-2.840;2024-01-30T10:11:03;6.70;99.90
83729;DHT22;73707;56.480;-2.840;2024-01-30T10:13:29;6.80;99.90
83729;DHT22;73707;56.480;-2.840;2024-01-30T10:15:55;6.80;99.90
83729;DHT22;73707;56.480;-2.840;2024-01-30T10:18:25;6.90;99.90
83729;DHT22;73707;56.480;-2.840;2024-01-30T10:20:51;7.00;99.90
83729;DHT22;73707;56.480;-2.840;2024-01-30T10:23:17;7.00;99.90
83729;DHT22;73707;56.480;-2.840;2024-01-30T10:25:44;7.10;99.90
83729;DHT22;73707;56.480;-2.840;2024-01-30T10:28:11;7.10;99.90
83729;DHT22;73707;56.480;-2.840;2024-01-30T10:30:36;7.20;99.80
83729;DHT22;73707;56.480;-2.840;2024-01-30T10:33:02;7.20;99.80
83729;DHT22;73707;56.480;-2.840;2024-01-30T10:35:28;7.30;99.90
83729;DHT22;73707;56.480;-2.840;2024-01-30T10:37:57;7.30;99.80
83729;DHT22;73707;56.480;-2.840;2024-01-30T10:40:27;7.40;99.70
83729;DHT22;73707;56.480;-2.840;2024-01-30T10:42:55;7.40;99.60
83729;DHT22;73707;56.480;-2.840;2024-01-30T10:45:22;7.50;99.50
83729;DHT22;73707;56.480;-2.840;2024-01-30T10:47:49;7.60;99.40
83729;DHT22;73707;56.480;-2.840;2024-01-30T10:50:16;7.70;99.20
83729;DHT22;73707;56.480;-2.840;2024-01-30T10:52:42;7.80;99.10
83729;DHT22;73707;56.480;-2.840;2024-01-30T10:55:10;7.90;99.10
83729;DHT22;73707;56.480;-2.840;2024-01-30T10:57:36;8.10;99.30
83729;DHT22;73707;56.480;-2.840;2024-01-30T11:00:04;8.20;99.10
83729;DHT22;73707;56.480;-2.840;2024-01-30T11:02:42;8.30;99.00
83729;DHT22;73707;56.480;-2.840;2024-01-30T11:05:09;8.40;98.90
83729;DHT22;73707;56.480;-2.840;2024-01-30T11:07:35;8.50;99.00
83729;DHT22;73707;56.480;-2.840;2024-01-30T11:10:04;8.50;98.80
83729;DHT22;73707;56.480;-2.840;2024-01-30T11:12:31;8.50;98.90
83729;DHT22;73707;56.480;-2.840;2024-01-30T11:15:08;8.60;98.80
83729;DHT22;73707;56.480;-2.840;2024-01-30T11:20:25;8.70;98.80
83729;DHT22;73707;56.480;-2.840;2024-01-30T11:22:54;8.80;98.90
83729;DHT22;73707;56.480;-2.840;2024-01-30T11:25:21;8.90;98.70
83729;DHT22;73707;56.480;-2.840;2024-01-30T11:27:50;9.00;98.60
83729;DHT22;73707;56.480;-2.840;2024-01-30T11:30:27;9.10;98.80
83729;DHT22;73707;56.480;-2.840;2024-01-30T11:35:25;9.30;98.20
83729;DHT22;73707;56.480;-2.840;2024-01-30T11:37:51;9.40;98.50
83729;DHT22;73707;56.480;-2.840;2024-01-30T11:40:17;9.50;98.50
83729;DHT22;73707;56.480;-2.840;2024-01-30T11:42:44;9.60;98.40
83729;DHT22;73707;56.480;-2.840;2024-01-30T11:45:11;9.80;98.00
83729;DHT22;73707;56.480;-2.840;2024-01-30T11:47:37;10.00;98.10
83729;DHT22;73707;56.480;-2.840;2024-01-30T11:50:06;10.10;98.00
83729;DHT22;73707;56.480;-2.840;2024-01-30T11:52:33;10.30;97.90
83729;DHT22;73707;56.480;-2.840;2024-01-30T11:55:00;10.50;97.90
83729;DHT22;73707;56.480;-2.840;2024-01-30T11:57:27;10.60;97.90
83729;DHT22;73707;56.480;-2.840;2024-01-30T11:59:53;10.70;98.00
83729;DHT22;73707;56.480;-2.840;2024-01-30T12:02:19;10.90;97.80
83729;DHT22;73707;56.480;-2.840;2024-01-30T12:04:44;11.00;96.60
83729;DHT22;73707;56.480;-2.840;2024-01-30T12:07:11;11.20;97.30
83729;DHT22;73707;56.480;-2.840;2024-01-30T12:09:37;11.40;96.60
83729;DHT22;73707;56.480;-2.840;2024-01-30T12:12:03;11.50;96.70
83729;DHT22;73707;56.480;-2.840;2024-01-30T12:14:30;11.70;97.30
83729;DHT22;73707;56.480;-2.840;2024-01-30T12:16:56;11.80;97.00
83729;DHT22;73707;56.480;-2.840;2024-01-30T12:19:23;11.80;96.50
83729;DHT22;73707;56.480;-2.840;2024-01-30T12:21:54;11.90;96.60
83729;DHT22;73707;56.480;-2.840;2024-01-30T12:24:21;12.00;96.70
83729;DHT22;73707;56.480;-2.840;2024-01-30T12:26:46;12.00;96.30
83729;DHT22;73707;56.480;-2.840;2024-01-30T12:29:14;12.10;96.20
83729;DHT22;73707;56.480;-2.840;2024-01-30T12:31:42;12.20;95.90
83729;DHT22;73707;56.480;-2.840;2024-01-30T12:34:08;12.20;95.40
83729;DHT22;73707;56.480;-2.840;2024-01-30T12:36:34;12.30;95.50
83729;DHT22;73707;56.480;-2.840;2024-01-30T12:39:00;12.40;95.30
83729;DHT22;73707;56.480;-2.840;2024-01-30T12:41:26;12.60;95.30
83729;DHT22;73707;56.480;-2.840;2024-01-30T12:43:56;12.70;95.10
83729;DHT22;73707;56.480;-2.840;2024-01-30T12:46:27;12.80;94.90
83729;DHT22;73707;56.480;-2.840;2024-01-30T12:48:53;12.90;95.20
83729;DHT22;73707;56.480;-2.840;2024-01-30T12:51:19;13.00;94.60
83729;DHT22;73707;56.480;-2.840;2024-01-30T12:53:45;13.00;94.70
83729;DHT22;73707;56.480;-2.840;2024-01-30T12:56:13;13.20;94.90
83729;DHT22;73707;56.480;-2.840;2024-01-30T12:58:39;13.30;93.80
83729;DHT22;73707;56.480;-2.840;2024-01-30T13:01:06;13.40;94.70
83729;DHT22;73707;56.480;-2.840;2024-01-30T13:03:31;13.60;94.30
83729;DHT22;73707;56.480;-2.840;2024-01-30T13:05:57;13.60;94.40
83729;DHT22;73707;56.480;-2.840;2024-01-30T13:08:22;13.80;93.50
83729;DHT22;73707;56.480;-2.840;2024-01-30T13:10:48;13.90;92.20
83729;DHT22;73707;56.480;-2.840;2024-01-30T13:13:14;14.10;93.60
83729;DHT22;73707;56.480;-2.840;2024-01-30T13:15:39;14.20;93.00
83729;DHT22;73707;56.480;-2.840;2024-01-30T13:18:06;14.30;93.50
83729;DHT22;73707;56.480;-2.840;2024-01-30T13:20:31;14.40;92.80
83729;DHT22;73707;56.480;-2.840;2024-01-30T13:22:57;14.40;92.80
83729;DHT22;73707;56.480;-2.840;2024-01-30T13:25:23;14.40;93.20
83729;DHT22;73707;56.480;-2.840;2024-01-30T13:27:48;14.50;93.30
83729;DHT22;73707;56.480;-2.840;2024-01-30T13:30:14;14.40;93.40
83729;DHT22;73707;56.480;-2.840;2024-01-30T13:32:40;14.50;93.50
83729;DHT22;73707;56.480;-2.840;2024-01-30T13:35:07;14.50;93.30
83729;DHT22;73707;56.480;-2.840;2024-01-30T13:37:32;14.40;93.20
83729;DHT22;73707;56.480;-2.840;2024-01-30T13:39:58;14.40;93.70
83729;DHT22;73707;56.480;-2.840;2024-01-30T13:42:24;14.30;93.70
83729;DHT22;73707;56.480;-2.840;2024-01-30T13:44:49;14.20;92.60
83729;DHT22;73707;56.480;-2.840;2024-01-30T13:47:15;14.20;92.30
83729;DHT22;73707;56.480;-2.840;2024-01-30T13:49:41;14.30;92.70
83729;DHT22;73707;56.480;-2.840;2024-01-30T13:52:07;14.30;92.40
83729;DHT22;73707;56.480;-2.840;2024-01-30T13:54:33;14.40;92.20
83729;DHT22;73707;56.480;-2.840;2024-01-30T13:56:59;14.40;92.40
83729;DHT22;73707;56.480;-2.840;2024-01-30T13:59:25;14.50;92.30
83729;DHT22;73707;56.480;-2.840;2024-01-30T14:01:51;14.50;92.30
83729;DHT22;73707;56.480;-2.840;2024-01-30T14:04:17;14.50;92.30
83729;DHT22;73707;56.480;-2.840;2024-01-30T14:06:43;14.50;91.80
83729;DHT22;73707;56.480;-2.840;2024-01-30T14:09:08;14.50;91.50
83729;DHT22;73707;56.480;-2.840;2024-01-30T14:11:35;14.50;92.20
83729;DHT22;73707;56.480;-2.840;2024-01-30T14:14:01;14.50;91.90
83729;DHT22;73707;56.480;-2.840;2024-01-30T14:16:27;14.50;92.30
83729;DHT22;73707;56.480;-2.840;2024-01-30T14:18:54;14.50;92.50
83729;DHT22;73707;56.480;-2.840;2024-01-30T14:21:19;14.50;92.60
83729;DHT22;73707;56.480;-2.840;2024-01-30T14:23:45;14.50;92.10
83729;DHT22;73707;56.480;-2.840;2024-01-30T14:26:12;14.50;91.70
83729;DHT22;73707;56.480;-2.840;2024-01-30T14:28:38;14.50;91.90
83729;DHT22;73707;56.480;-2.840;2024-01-30T14:31:04;14.50;92.00
83729;DHT22;73707;56.480;-2.840;2024-01-30T14:33:29;14.50;92.20
83729;DHT22;73707;56.480;-2.840;2024-01-30T14:35:55;14.40;92.50
83729;DHT22;73707;56.480;-2.840;2024-01-30T14:38:21;14.40;92.50
83729;DHT22;73707;56.480;-2.840;2024-01-30T14:40:46;14.30;92.70
83729;DHT22;73707;56.480;-2.840;2024-01-30T14:43:12;14.20;92.40
83729;DHT22;73707;56.480;-2.840;2024-01-30T14:45:39;14.20;92.60
83729;DHT22;73707;56.480;-2.840;2024-01-30T14:48:05;14.20;92.70
83729;DHT22;73707;56.480;-2.840;2024-01-30T14:50:31;14.10;93.00
83729;DHT22;73707;56.480;-2.840;2024-01-30T14:52:56;14.00;92.70
83729;DHT22;73707;56.480;-2.840;2024-01-30T14:55:22;13.90;92.70
83729;DHT22;73707;56.480;-2.840;2024-01-30T14:57:49;13.90;92.90
83729;DHT22;73707;56.480;-2.840;2024-01-30T15:00:17;13.80;93.00
83729;DHT22;73707;56.480;-2.840;2024-01-30T15:02:43;13.70;93.00
83729;DHT22;73707;56.480;-2.840;2024-01-30T15:05:10;13.60;93.00
83729;DHT22;73707;56.480;-2.840;2024-01-30T15:07:37;13.50;92.90
83729;DHT22;73707;56.480;-2.840;2024-01-30T15:10:03;13.50;93.20
83729;DHT22;73707;56.480;-2.840;2024-01-30T15:12:29;13.40;92.80
83729;DHT22;73707;56.480;-2.840;2024-01-30T15:14:54;13.30;93.00
83729;DHT22;73707;56.480;-2.840;2024-01-30T15:17:20;13.20;93.10
83729;DHT22;73707;56.480;-2.840;2024-01-30T15:19:49;13.10;93.30
83729;DHT22;73707;56.480;-2.840;2024-01-30T15:22:16;13.00;93.10
83729;DHT22;73707;56.480;-2.840;2024-01-30T15:24:42;12.90;93.70
83729;DHT22;73707;56.480;-2.840;2024-01-30T15:27:08;12.90;93.40